Aviation Digital Data Service (ADDS)

Output produced by METARs form (0021 UTC 26 June 2019)
found at http://aviationweather.gov/metar/data/
 
KHKS 252350Z 2600/2624 22004KT P6SM FEW030 OVC070 
     FM261500 23007KT P6SM OVC100